Aeroporto :
LOGIN :

Iscrizione | Disclaimer

   EN    FR    IT 

 










Sommario :    VFR   VFR Marginale   IFR   IFR Intensivo   IFR Molto Intensivo
Visibilità : 
Base nubi : 
>= 8 km
>= 3000ft
5 / 8 km
1000 / 3000 ft
1500m / 5 km
500 / 1000 ft
800 / 1500m
200 / 500 ft
< 800m
< 200 ft
Simboli :   Temporali  Nebbia  Neve Forte  Precipitazioni Forti  Vento > 20 kt
SIGMETs :   Varie  Temporali  Ghiacco  Turbolenza  Onda orograficha  Ceneri Vulcaniche







- Altitudine del aeroporto : 194 ft
- Codice IATA : ANE
- Carte del aeroporto


LFJR - Angers Marcé

ULTIMO METAR :
  • 210800Z AUTO 00000KT 0200 0150 R26/0250N FG VV/// 03/03 Q1028 BECMG 4000 BR OVC003

METARs OBSOLETI :
  • 210730Z AUTO VRB02KT 0150 R26/M0200N FG VV/// 03/03 Q1027 BECMG 4000 BR OVC003
  • 210700Z AUTO 00000KT 0200 R26/0225N FG VV/// 03/03 Q1027 BECMG 4000 BR OVC003
  • 210630Z AUTO 00000KT 0250 0200 R26/0375N FG VV/// 02/02 Q1027 BECMG 4000 BR OVC003
  • 210600Z AUTO 00000KT 0250 0200 R26/0325N FG VV/// 02/02 Q1027 NOSIG
  • 210530Z AUTO VRB02KT 0200 R26/0250N FG VV/// 02/02 Q1027

TAF TAF LFJR
Valido dal 21 a 06 ore il 21 a 15 ore UTC


210500Z 2106/2115 VRB03KT 0250 FG VV///
BECMG 2108/2110 4000 BR OVC003
BECMG 2110/2112 9999 NSW FEW005
Nessun NOTAM noto per questo aeroporto.



MetMap, La meteo Aeronautica in un colpo d'occhio ! - Copyright ORBIFLY Dicembre 2007 - Disclaimer

ORBIFLY MET'MAP TEAM :

Programmazione e sviluppo : Alexandra Zaïnal
Concezione e sviluppo : Baudouin d'Aumeries
Co-Programmazione e sviluppo : Marc-Olivier Méhu
Supporto tecnico e logistico : Manuel Goepfert
Aiuto per la traduzione : Arnaldo La Scala

Contatto : metmap@orbifly.com




FONTI E CREDITI :

   NOAA